createdAt,value
2022-08-20T00:00:08.262Z,101296.91
2022-08-20T00:02:41.374Z,101290.78
2022-08-20T00:05:10.449Z,101298.94
2022-08-20T00:07:38.953Z,101289.91
2022-08-20T00:10:09.905Z,101287.31
2022-08-20T00:12:38.361Z,101290.38
2022-08-20T00:15:09.140Z,101288.19
2022-08-20T00:17:38.546Z,101285.09
2022-08-20T00:20:10.931Z,101296.50
2022-08-20T00:22:40.295Z,101295.81
2022-08-20T00:25:11.494Z,101286.44
2022-08-20T00:27:40.172Z,101287.53
2022-08-20T00:30:13.380Z,101283.75
2022-08-20T00:32:46.373Z,101288.53
2022-08-20T00:35:16.217Z,101286.88
2022-08-20T00:37:45.083Z,101293.84
2022-08-20T00:40:22.023Z,101288.00
2022-08-20T00:42:54.605Z,101286.41
2022-08-20T00:45:26.342Z,101281.34
2022-08-20T00:47:55.907Z,101288.19
2022-08-20T00:50:28.975Z,101290.94
2022-08-20T00:52:58.403Z,101290.94
2022-08-20T00:55:31.473Z,101291.78
2022-08-20T00:58:04.402Z,101276.59
2022-08-20T01:00:39.111Z,101278.94
2022-08-20T01:03:10.054Z,101279.00
2022-08-20T01:05:39.862Z,101280.69
2022-08-20T01:08:09.481Z,101278.63
2022-08-20T01:10:41.701Z,101282.06
2022-08-20T01:13:13.891Z,101288.25
2022-08-20T01:15:47.470Z,101283.47
2022-08-20T01:18:20.178Z,101276.53
2022-08-20T01:20:52.703Z,101281.44
2022-08-20T01:23:30.607Z,101271.25
2022-08-20T01:26:04.986Z,101276.34
2022-08-20T01:28:40.301Z,101272.59
2022-08-20T01:31:12.350Z,101277.69
2022-08-20T01:33:42.017Z,101277.00
2022-08-20T01:36:13.861Z,101277.88
2022-08-20T01:38:54.342Z,101273.81
2022-08-20T01:41:51.247Z,101269.72
2022-08-20T01:44:22.064Z,101266.81
2022-08-20T01:46:57.582Z,101271.56
2022-08-20T01:49:29.552Z,101268.00
2022-08-20T01:52:02.308Z,101278.53
2022-08-20T01:54:34.038Z,101279.72
2022-08-20T01:57:08.510Z,101276.19
2022-08-20T01:59:37.232Z,101274.13
2022-08-20T02:02:07.218Z,101270.91
2022-08-20T02:04:36.512Z,101272.94
2022-08-20T02:07:07.485Z,101274.28
2022-08-20T02:09:39.373Z,101278.72
2022-08-20T02:12:10.886Z,101275.50
2022-08-20T02:14:44.174Z,101268.19
2022-08-20T02:17:14.777Z,101263.06
2022-08-20T02:19:50.064Z,101262.56
2022-08-20T02:22:23.192Z,101269.19
2022-08-20T02:24:52.844Z,101271.56
2022-08-20T02:27:24.075Z,101274.13
2022-08-20T02:29:53.113Z,101268.50
2022-08-20T02:32:24.948Z,101271.56
2022-08-20T02:35:03.475Z,101283.81
2022-08-20T02:37:32.211Z,101282.47
2022-08-20T02:40:01.096Z,101291.63
2022-08-20T02:42:31.286Z,101288.22
2022-08-20T02:45:00.072Z,101278.88
2022-08-20T02:47:29.109Z,101276.97
2022-08-20T02:49:59.731Z,101276.66
2022-08-20T02:52:28.949Z,101279.34
2022-08-20T02:54:57.508Z,101277.66
2022-08-20T02:57:26.290Z,101278.16
2022-08-20T02:59:56.790Z,101280.50
2022-08-20T03:02:25.582Z,101283.03
2022-08-20T03:04:54.322Z,101285.75
2022-08-20T03:07:22.985Z,101276.94
2022-08-20T03:09:51.880Z,101287.13
2022-08-20T03:12:20.581Z,101283.50
2022-08-20T03:14:49.322Z,101284.97
2022-08-20T03:17:19.626Z,101292.72
2022-08-20T03:19:48.260Z,101291.53
2022-08-20T03:22:16.904Z,101292.22
2022-08-20T03:24:45.806Z,101292.09
2022-08-20T03:27:15.042Z,101285.94
2022-08-20T03:29:43.884Z,101294.44
2022-08-20T03:32:12.582Z,101304.16
2022-08-20T03:34:42.690Z,101302.94
2022-08-20T03:37:11.864Z,101307.84
2022-08-20T03:39:40.735Z,101303.59
2022-08-20T03:42:09.673Z,101312.59
2022-08-20T03:44:38.304Z,101313.28
2022-08-20T03:47:09.625Z,101306.56
2022-08-20T03:49:38.367Z,101306.22
2022-08-20T03:52:08.743Z,101300.09
2022-08-20T03:54:37.489Z,101304.53
2022-08-20T03:57:12.942Z,101302.88
2022-08-20T03:59:41.945Z,101300.47
2022-08-20T04:02:11.392Z,101298.94
2022-08-20T04:04:40.902Z,101301.50
2022-08-20T04:07:16.582Z,101295.41
2022-08-20T04:09:45.281Z,101293.53
2022-08-20T04:12:14.420Z,101300.00
2022-08-20T04:14:43.581Z,101300.16
2022-08-20T04:17:14.379Z,101308.50
2022-08-20T04:19:44.480Z,101305.94
2022-08-20T04:22:15.117Z,101310.69
2022-08-20T04:24:44.441Z,101315.81
2022-08-20T04:27:15.141Z,101315.44
2022-08-20T04:29:44.878Z,101317.09
2022-08-20T04:32:14.179Z,101322.03
2022-08-20T04:34:47.296Z,101309.09
2022-08-20T04:37:21.345Z,101307.22
2022-08-20T04:40:11.173Z,101304.47
2022-08-20T04:42:39.241Z,101307.81
2022-08-20T04:45:09.851Z,101310.19
2022-08-20T04:47:38.622Z,101311.16
2022-08-20T04:50:10.694Z,101318.31
2022-08-20T04:52:40.979Z,101309.91
2022-08-20T04:55:11.191Z,101305.25
2022-08-20T04:57:39.941Z,101304.53
2022-08-20T05:00:13.183Z,101303.47
2022-08-20T05:02:42.218Z,101306.81
2022-08-20T05:05:11.687Z,101312.28
2022-08-20T05:07:43.656Z,101320.69
2022-08-20T05:10:13.899Z,101318.28
2022-08-20T05:12:43.689Z,101310.94
2022-08-20T05:15:26.365Z,101314.47
2022-08-20T05:17:58.094Z,101316.09
2022-08-20T05:20:32.497Z,101320.13
2022-08-20T05:23:03.720Z,101314.81
2022-08-20T05:25:32.766Z,101320.13
2022-08-20T05:28:03.447Z,101309.50
2022-08-20T05:30:34.312Z,101305.00
2022-08-20T05:33:05.556Z,101301.53
2022-08-20T05:35:38.778Z,101302.75
2022-08-20T05:38:11.884Z,101301.53
2022-08-20T05:40:41.744Z,101301.38
2022-08-20T05:43:10.852Z,101298.81
2022-08-20T05:45:41.175Z,101300.31
2022-08-20T05:48:15.109Z,101298.34
2022-08-20T05:50:45.572Z,101297.84
2022-08-20T05:53:15.894Z,101295.38
2022-08-20T05:55:46.139Z,101290.72
2022-08-20T05:58:20.898Z,101280.03
2022-08-20T06:00:50.582Z,101285.88
2022-08-20T06:03:36.444Z,101282.72
2022-08-20T06:06:18.069Z,101280.84
2022-08-20T06:08:56.605Z,101272.75
2022-08-20T06:11:25.163Z,101270.91
2022-08-20T06:13:53.902Z,101270.84
2022-08-20T06:16:22.731Z,101264.81
2022-08-20T06:18:58.250Z,101266.97
2022-08-20T06:21:27.039Z,101261.84
2022-08-20T06:23:59.967Z,101268.28
2022-08-20T06:26:31.000Z,101262.47
2022-08-20T06:28:59.953Z,101257.47
2022-08-20T06:31:28.758Z,101251.13
2022-08-20T06:33:57.811Z,101248.47
2022-08-20T06:36:26.384Z,101257.34
2022-08-20T06:38:58.604Z,101258.88
2022-08-20T06:41:36.060Z,101258.06
2022-08-20T06:44:06.786Z,101251.41
2022-08-20T06:46:36.364Z,101252.66
2022-08-20T06:49:05.734Z,101254.38
2022-08-20T06:51:35.328Z,101248.47
2022-08-20T06:54:06.425Z,101247.19
2022-08-20T06:56:35.727Z,101240.06
2022-08-20T06:59:04.666Z,101243.03
2022-08-20T07:01:33.528Z,101241.19
2022-08-20T07:04:02.187Z,101237.78
2022-08-20T07:06:31.352Z,101231.72
2022-08-20T07:09:00.085Z,101230.72
2022-08-20T07:11:30.214Z,101230.94
2022-08-20T07:13:59.614Z,101224.41
2022-08-20T07:16:28.959Z,101221.25
2022-08-20T07:18:58.518Z,101214.09
2022-08-20T07:21:27.311Z,101219.16
2022-08-20T07:23:56.007Z,101211.13
2022-08-20T07:26:25.064Z,101215.34
2022-08-20T07:28:55.208Z,101212.00
2022-08-20T07:31:41.408Z,101203.75
2022-08-20T07:34:12.030Z,101201.47
2022-08-20T07:36:40.854Z,101204.44
2022-08-20T07:39:09.521Z,101196.00
2022-08-20T07:41:38.351Z,101200.84
2022-08-20T07:44:08.486Z,101196.84
2022-08-20T07:46:37.202Z,101190.25
2022-08-20T07:49:10.196Z,101190.28
2022-08-20T07:51:38.994Z,101192.19
2022-08-20T07:54:07.761Z,101192.63
2022-08-20T07:56:36.614Z,101189.19
2022-08-20T07:59:07.617Z,101190.94
2022-08-20T08:01:37.873Z,101185.00
2022-08-20T08:04:06.773Z,101179.28
2022-08-20T08:09:07.233Z,101185.22
2022-08-20T08:11:39.795Z,101177.41
2022-08-20T08:14:11.309Z,101186.47
2022-08-20T08:16:45.706Z,101181.22
2022-08-20T08:19:19.261Z,101173.38
2022-08-20T08:21:48.114Z,101177.00
2022-08-20T08:24:21.127Z,101178.28
2022-08-20T08:26:52.685Z,101168.38
2022-08-20T08:29:22.034Z,101173.22
2022-08-20T08:31:52.189Z,101176.38
2022-08-20T08:34:20.892Z,101184.19
2022-08-20T08:36:51.179Z,101170.69
2022-08-20T08:39:20.472Z,101168.16
2022-08-20T08:41:51.437Z,101169.88
2022-08-20T08:44:23.634Z,101173.66
2022-08-20T08:46:57.982Z,101177.03
2022-08-20T08:49:37.780Z,101182.09
2022-08-20T08:52:11.869Z,101181.44
2022-08-20T08:54:44.489Z,101174.28
2022-08-20T08:57:13.229Z,101171.09
2022-08-20T08:59:47.420Z,101176.16
2022-08-20T09:02:31.509Z,101169.84
2022-08-20T09:05:03.260Z,101162.25
2022-08-20T09:07:34.828Z,101170.09
2022-08-20T09:10:04.300Z,101161.16
2022-08-20T09:12:33.359Z,101152.44
2022-08-20T09:15:01.989Z,101154.50
2022-08-20T09:17:32.045Z,101167.47
2022-08-20T09:20:00.763Z,101164.91
2022-08-20T09:22:29.558Z,101154.50
2022-08-20T09:24:59.264Z,101154.13
2022-08-20T09:27:27.923Z,101160.63
2022-08-20T09:29:56.725Z,101168.81
2022-08-20T09:32:26.425Z,101184.53
2022-08-20T09:34:58.361Z,101185.00
2022-08-20T09:37:32.416Z,101177.19
2022-08-20T09:40:04.010Z,101180.38
2022-08-20T09:42:41.010Z,101181.56
2022-08-20T09:45:12.537Z,101186.59
2022-08-20T09:47:54.714Z,101188.25
2022-08-20T09:50:28.530Z,101191.59
2022-08-20T09:52:59.200Z,101184.88
2022-08-20T09:55:29.602Z,101180.94
2022-08-20T09:57:58.605Z,101182.00
2022-08-20T10:00:27.305Z,101184.97
2022-08-20T10:02:56.069Z,101187.97
2022-08-20T10:05:24.608Z,101182.84
2022-08-20T10:07:56.430Z,101191.72
2022-08-20T10:10:25.338Z,101186.22
2022-08-20T10:12:55.051Z,101179.72
2022-08-20T10:15:23.968Z,101181.50
2022-08-20T10:17:52.603Z,101179.09
2022-08-20T10:20:21.325Z,101178.28
2022-08-20T10:22:49.947Z,101172.91
2022-08-20T10:25:20.101Z,101176.03
2022-08-20T10:27:48.760Z,101174.06
2022-08-20T10:30:17.461Z,101168.38
2022-08-20T10:32:46.059Z,101174.09
2022-08-20T10:35:14.687Z,101160.22
2022-08-20T10:37:43.376Z,101156.97
2022-08-20T10:40:14.100Z,101160.28
2022-08-20T10:42:44.570Z,101160.22
2022-08-20T10:45:15.385Z,101162.44
2022-08-20T10:47:44.487Z,101166.47
2022-08-20T10:50:15.885Z,101158.75
2022-08-20T10:52:44.863Z,101161.09
2022-08-20T10:55:13.620Z,101152.03
2022-08-20T10:57:44.284Z,101153.34
2022-08-20T11:00:14.924Z,101150.50
2022-08-20T11:02:43.767Z,101144.31
2022-08-20T11:05:12.429Z,101152.69
2022-08-20T11:07:55.736Z,101155.72
2022-08-20T11:10:27.599Z,101150.84
2022-08-20T11:12:57.956Z,101150.88
2022-08-20T11:15:27.007Z,101146.81
2022-08-20T11:17:56.629Z,101136.84
2022-08-20T11:20:26.669Z,101142.09
2022-08-20T11:22:55.922Z,101133.19
2022-08-20T11:25:24.486Z,101138.16
2022-08-20T11:27:54.257Z,101139.75
2022-08-20T11:30:26.284Z,101138.84
2022-08-20T11:32:55.469Z,101146.16
2022-08-20T11:35:42.234Z,101144.09
2022-08-20T11:38:14.185Z,101141.94
2022-08-20T11:40:42.819Z,101145.44
2022-08-20T11:43:15.225Z,101141.81
2022-08-20T11:45:46.690Z,101133.41
2022-08-20T11:48:15.435Z,101135.06
2022-08-20T11:50:44.050Z,101144.41
2022-08-20T11:53:12.886Z,101142.53
2022-08-20T11:55:44.606Z,101149.41
2022-08-20T11:58:13.322Z,101140.13
2022-08-20T12:00:42.408Z,101142.03
2022-08-20T12:03:12.927Z,101140.53
2022-08-20T12:05:43.301Z,101138.19
2022-08-20T12:08:26.853Z,101135.44
2022-08-20T12:10:59.046Z,101133.78
2022-08-20T12:13:30.658Z,101133.31
2022-08-20T12:16:17.865Z,101132.50
2022-08-20T12:18:48.989Z,101134.59
2022-08-20T12:21:17.862Z,101130.31
2022-08-20T12:23:47.189Z,101124.44
2022-08-20T12:26:16.885Z,101127.34
2022-08-20T12:28:45.785Z,101128.94
2022-08-20T12:31:14.412Z,101118.22
2022-08-20T12:33:43.041Z,101121.13
2022-08-20T12:36:13.045Z,101115.59
2022-08-20T12:38:41.581Z,101123.88
2022-08-20T12:41:10.203Z,101117.19
2022-08-20T12:43:38.899Z,101104.28
2022-08-20T12:46:07.857Z,101104.88
2022-08-20T12:48:36.567Z,101109.50
2022-08-20T12:51:05.200Z,101105.63
2022-08-20T12:53:35.439Z,101097.19
2022-08-20T12:56:06.129Z,101088.84
2022-08-20T12:58:34.982Z,101097.50
2022-08-20T13:01:03.650Z,101099.09
2022-08-20T13:03:32.310Z,101099.97
2022-08-20T13:06:02.920Z,101096.66
2022-08-20T13:08:31.561Z,101097.19
2022-08-20T13:11:01.648Z,101098.28
2022-08-20T13:13:30.178Z,101090.03
2022-08-20T13:15:58.702Z,101092.00
2022-08-20T13:18:27.387Z,101085.03
2022-08-20T13:20:56.009Z,101085.78
2022-08-20T13:23:24.739Z,101093.78
2022-08-20T13:25:53.603Z,101090.00
2022-08-20T13:28:23.681Z,101096.63
2022-08-20T13:30:52.498Z,101087.50
2022-08-20T13:33:21.178Z,101088.22
2022-08-20T13:35:49.965Z,101083.53
2022-08-20T13:38:18.680Z,101093.75
2022-08-20T13:40:48.926Z,101092.09
2022-08-20T13:43:18.079Z,101091.66
2022-08-20T13:45:48.281Z,101091.88
2022-08-20T13:48:17.360Z,101091.44
2022-08-20T13:50:46.797Z,101090.53
2022-08-20T13:53:16.024Z,101095.00
2022-08-20T13:55:45.565Z,101096.50
2022-08-20T13:58:14.281Z,101092.16
2022-08-20T14:00:43.261Z,101096.44
2022-08-20T14:03:14.081Z,101091.28
2022-08-20T14:05:49.049Z,101090.00
2022-08-20T14:08:20.644Z,101091.69
2022-08-20T14:10:51.538Z,101089.88
2022-08-20T14:13:22.060Z,101094.09
2022-08-20T14:15:51.041Z,101088.00
2022-08-20T14:18:21.628Z,101086.88
2022-08-20T14:20:50.922Z,101084.38
2022-08-20T14:23:19.669Z,101092.69
2022-08-20T14:25:50.453Z,101096.50
2022-08-20T14:28:21.284Z,101092.75
2022-08-20T14:30:53.190Z,101086.31
2022-08-20T14:33:24.846Z,101083.44
2022-08-20T14:35:54.188Z,101093.66
2022-08-20T14:38:23.218Z,101089.69
2022-08-20T14:40:52.025Z,101087.09
2022-08-20T14:43:20.883Z,101085.81
2022-08-20T14:45:49.648Z,101085.88
2022-08-20T14:48:18.328Z,101085.81
2022-08-20T14:50:48.500Z,101090.50
2022-08-20T14:53:17.296Z,101088.16
2022-08-20T14:55:46.104Z,101086.19
2022-08-20T14:58:15.605Z,101081.84
2022-08-20T15:00:45.374Z,101078.72
2022-08-20T15:03:14.823Z,101085.34
2022-08-20T15:05:44.114Z,101090.31
2022-08-20T15:08:14.211Z,101096.34
2022-08-20T15:10:43.424Z,101098.88
2022-08-20T15:13:12.275Z,101106.28
2022-08-20T15:15:41.868Z,101107.34
2022-08-20T15:18:10.695Z,101106.56
2022-08-20T15:20:39.921Z,101110.72
2022-08-20T15:23:08.978Z,101104.88
2022-08-20T15:25:39.172Z,101111.78
2022-08-20T15:28:09.809Z,101102.97
2022-08-20T15:30:40.771Z,101104.97
2022-08-20T15:33:10.293Z,101101.94
2022-08-20T15:35:39.012Z,101096.94
2022-08-20T15:38:07.891Z,101099.72
2022-08-20T15:40:36.896Z,101092.69
2022-08-20T15:43:07.981Z,101096.94
2022-08-20T15:45:37.413Z,101097.31
2022-08-20T15:48:13.006Z,101100.66
2022-08-20T15:51:11.531Z,101094.16
2022-08-20T15:53:51.899Z,101098.59
2022-08-20T15:56:33.281Z,101101.31
2022-08-20T15:59:15.212Z,101108.47
2022-08-20T16:01:55.103Z,101102.97
2022-08-20T16:04:37.450Z,101098.13
2022-08-20T16:07:12.149Z,101100.69
2022-08-20T16:09:54.144Z,101093.88
2022-08-20T16:12:32.489Z,101096.00
2022-08-20T16:15:06.601Z,101095.34
2022-08-20T16:17:41.750Z,101092.63
2022-08-20T16:20:17.933Z,101105.41
2022-08-20T16:22:48.222Z,101100.34
2022-08-20T16:25:22.877Z,101096.03
2022-08-20T16:28:04.041Z,101092.28
2022-08-20T16:30:43.089Z,101094.25
2022-08-20T16:33:18.107Z,101095.63
2022-08-20T16:35:52.760Z,101097.50
2022-08-20T16:38:28.262Z,101093.63
2022-08-20T16:41:01.805Z,101092.50
2022-08-20T16:43:35.498Z,101087.41
2022-08-20T16:46:14.290Z,101083.19
2022-08-20T16:48:48.358Z,101082.56
2022-08-20T16:51:22.502Z,101082.75
2022-08-20T16:53:51.320Z,101082.13
2022-08-20T16:56:34.135Z,101079.19
2022-08-20T16:59:07.577Z,101086.28
2022-08-20T17:01:38.881Z,101078.50
2022-08-20T17:04:08.937Z,101088.09
2022-08-20T17:06:41.193Z,101090.47
2022-08-20T17:09:13.322Z,101089.59
2022-08-20T17:11:43.070Z,101088.03
2022-08-20T17:14:14.478Z,101092.16
2022-08-20T17:16:47.680Z,101088.13
2022-08-20T17:19:30.309Z,101091.03
2022-08-20T17:22:10.423Z,101085.13
2022-08-20T17:24:40.621Z,101073.91
2022-08-20T17:27:15.132Z,101077.22
2022-08-20T17:29:51.880Z,101080.47
2022-08-20T17:32:24.721Z,101086.34
2022-08-20T17:34:55.660Z,101081.03
2022-08-20T17:37:27.578Z,101090.19
2022-08-20T17:40:06.637Z,101093.38
2022-08-20T17:42:48.597Z,101083.66
2022-08-20T17:45:23.390Z,101083.66
2022-08-20T17:47:57.258Z,101085.56
2022-08-20T17:50:31.799Z,101082.63
2022-08-20T17:53:06.060Z,101089.16
2022-08-20T17:55:37.838Z,101082.19
2022-08-20T17:58:12.520Z,101082.59
2022-08-20T18:00:42.436Z,101089.25
2022-08-20T18:03:23.879Z,101095.88
2022-08-20T18:05:58.744Z,101090.94
2022-08-20T18:08:32.681Z,101092.03
2022-08-20T18:11:05.341Z,101094.09
2022-08-20T18:13:48.170Z,101088.59
2022-08-20T18:16:24.270Z,101089.00
2022-08-20T18:18:58.891Z,101087.75
2022-08-20T18:21:48.850Z,101087.28
2022-08-20T18:24:23.180Z,101090.28
2022-08-20T18:26:56.959Z,101084.38
2022-08-20T18:29:29.690Z,101086.09
2022-08-20T18:32:02.002Z,101090.72
2022-08-20T18:34:41.301Z,101089.75
2022-08-20T18:37:26.398Z,101085.25
2022-08-20T18:40:06.245Z,101091.66
2022-08-20T18:42:37.545Z,101081.84
2022-08-20T18:45:08.477Z,101090.59
2022-08-20T18:47:46.497Z,101082.72
2022-08-20T18:50:26.246Z,101090.84
2022-08-20T18:53:10.380Z,101089.56
2022-08-20T18:55:41.180Z,101092.69
2022-08-20T18:58:11.975Z,101089.13
2022-08-20T19:00:43.290Z,101086.78
2022-08-20T19:03:20.355Z,101088.56
2022-08-20T19:06:09.798Z,101084.34
2022-08-20T19:08:51.320Z,101079.78
2022-08-20T19:11:58.199Z,101078.16
2022-08-20T19:14:54.233Z,101068.88
2022-08-20T19:17:33.371Z,101068.34
2022-08-20T19:20:03.659Z,101062.13
2022-08-20T19:22:35.226Z,101062.81
2022-08-20T19:25:03.858Z,101067.94
2022-08-20T19:27:32.925Z,101065.59
2022-08-20T19:30:01.664Z,101066.09
2022-08-20T19:32:32.772Z,101066.19
2022-08-20T19:35:05.066Z,101063.63
2022-08-20T19:37:44.494Z,101059.16
2022-08-20T19:40:26.519Z,101054.03
2022-08-20T19:42:59.624Z,101058.75
2022-08-20T19:45:32.902Z,101049.03
2022-08-20T19:48:18.102Z,101059.97
2022-08-20T19:51:06.836Z,101052.25
2022-08-20T19:53:44.457Z,101049.63
2022-08-20T19:56:16.101Z,101053.03
2022-08-20T19:58:45.270Z,101051.22
2022-08-20T20:01:20.024Z,101055.97
2022-08-20T20:03:59.795Z,101053.59
2022-08-20T20:06:30.256Z,101050.81
2022-08-20T20:09:02.739Z,101051.91
2022-08-20T20:11:34.958Z,101055.28
2022-08-20T20:14:05.677Z,101052.69
2022-08-20T20:16:35.069Z,101047.91
2022-08-20T20:19:25.951Z,101057.63
2022-08-20T20:22:08.526Z,101049.16
2022-08-20T20:25:01.404Z,101054.63
2022-08-20T20:27:32.152Z,101044.53
2022-08-20T20:30:02.517Z,101047.31
2022-08-20T20:32:34.095Z,101043.31
2022-08-20T20:35:06.357Z,101054.31
2022-08-20T20:37:49.814Z,101052.34
2022-08-20T20:40:28.728Z,101052.34
2022-08-20T20:42:59.952Z,101050.56
2022-08-20T20:45:32.108Z,101040.63
2022-08-20T20:48:02.892Z,101046.69
2022-08-20T20:50:34.409Z,101044.13
2022-08-20T20:53:03.333Z,101044.63
2022-08-20T20:55:36.650Z,101036.41
2022-08-20T20:58:05.669Z,101042.75
2022-08-20T21:00:35.889Z,101037.25
2022-08-20T21:03:04.635Z,101033.69
2022-08-20T21:05:34.170Z,101035.13
2022-08-20T21:08:05.546Z,101034.28
2022-08-20T21:10:37.809Z,101035.50
2022-08-20T21:13:08.188Z,101033.59
2022-08-20T21:15:39.707Z,101039.81
2022-08-20T21:18:10.410Z,101030.53
2022-08-20T21:20:39.151Z,101032.38
2022-08-20T21:23:07.850Z,101032.94
2022-08-20T21:25:38.456Z,101031.66
2022-08-20T21:28:08.428Z,101023.81
2022-08-20T21:30:37.046Z,101025.88
2022-08-20T21:33:05.706Z,101022.13
2022-08-20T21:35:34.365Z,101017.22
2022-08-20T21:38:02.957Z,101011.75
2022-08-20T21:40:31.533Z,101017.88
2022-08-20T21:43:02.209Z,101022.31
2022-08-20T21:45:35.252Z,101016.84
2022-08-20T21:48:04.290Z,101011.03
2022-08-20T21:50:32.907Z,101007.47
2022-08-20T21:53:01.585Z,101004.72
2022-08-20T21:55:40.830Z,101008.44
2022-08-20T21:58:11.512Z,101003.88
2022-08-20T22:00:55.658Z,100993.06
2022-08-20T22:03:27.286Z,100997.16
2022-08-20T22:05:56.448Z,101004.28
2022-08-20T22:08:28.088Z,101004.66
2022-08-20T22:10:58.553Z,101005.22
2022-08-20T22:13:34.102Z,101001.69
2022-08-20T22:16:05.606Z,101008.66
2022-08-20T22:18:34.674Z,101009.84
2022-08-20T22:21:03.714Z,101008.97
2022-08-20T22:23:32.406Z,101007.91
2022-08-20T22:26:01.035Z,101006.34
2022-08-20T22:28:31.302Z,101007.19
2022-08-20T22:31:00.085Z,101013.59
2022-08-20T22:33:28.677Z,101010.78
2022-08-20T22:35:58.927Z,101017.75
2022-08-20T22:38:28.081Z,101017.44
2022-08-20T22:40:56.774Z,101016.59
2022-08-20T22:43:25.506Z,101008.81
2022-08-20T22:45:59.836Z,101006.84
2022-08-20T22:48:29.999Z,101012.81
2022-08-20T22:50:59.143Z,101014.72
2022-08-20T22:53:29.002Z,101014.94
2022-08-20T22:55:57.803Z,101013.22
2022-08-20T22:58:31.222Z,101014.94
2022-08-20T23:01:05.205Z,101006.56
2022-08-20T23:03:39.624Z,101005.34
2022-08-20T23:06:10.538Z,101003.66
2022-08-20T23:08:40.605Z,101008.06
2022-08-20T23:11:09.767Z,101008.75
2022-08-20T23:13:38.910Z,101006.16
2022-08-20T23:16:09.321Z,101006.41
2022-08-20T23:18:37.903Z,101011.69
2022-08-20T23:21:06.832Z,101002.00
2022-08-20T23:23:35.684Z,101010.38
2022-08-20T23:26:04.468Z,101006.78
2022-08-20T23:28:33.359Z,101009.34
2022-08-20T23:31:02.436Z,101013.59
2022-08-20T23:33:32.766Z,101010.84
2022-08-20T23:36:05.517Z,101015.47
2022-08-20T23:38:34.265Z,101019.88
2022-08-20T23:41:02.773Z,101017.34
2022-08-20T23:43:31.575Z,101014.31
2022-08-20T23:46:03.984Z,101018.31
2022-08-20T23:48:34.957Z,101013.59
2022-08-20T23:51:03.848Z,101014.09
2022-08-20T23:53:32.437Z,101012.75
2022-08-20T23:56:01.003Z,101004.41
2022-08-20T23:58:29.629Z,101006.56
